Main page
METAR-TAF:

METAR-TAF

Airports :

Colmar Airport

Colmar, France

latitude: 48-06-37N, longitude: 7-21-33E, elevation: 191 m

Current weather observation

The report was made 20 minutes ago, at 14:00 UTC
Wind 8 kt from the South
Temperature 14°C
Humidity 33%
Pressure 1027 hPa
Visibility 10 km or more
no clouds below 1500 m and no cumulonimbus

METAR: LFGA 221400Z AUTO 18008KT CAVOK 14/M02 Q1027

Time: 15:20 (14:20 UTC)


TAF: missing

Weather observations and forecasts of more than 4000 airports (METAR and TAF reports).

The available stations are represented by yellow and red dots on the map.

Hover mouse over dot to see the name of the station.

Then click to see weather observations and forecasts.

To change the map : click on the green buttons with a black cross to zoom in, on the green button with a dash to zoom out, or on the green arrows for adjacent maps.


METAR-TAF: